Terminal Aerodrome Forecast
Issued by NWS Shreveport, LA

Home | Current Version | Previous Version | Text Only | Print | Product List | Glossary On
Versions: 1 2 3 4 5 6 7 8 9 10 11 12 13 14 15
000
FTUS44 KSHV 261256 AAA
TAFTYR
TAF AMD
KTYR 261256Z 2613/2712 17006KT 2SM BR SCT004
      TEMPO 2613/2614 5SM BR BKN009 OVC012
     FM261400 22010KT P6SM BKN015
     FM261600 20012KT P6SM SCT035
     FM261900 19010G16KT P6SM BKN045
     FM270000 16007KT P6SM SCT050
     FM271000 19007KT P6SM SCT015=

USA.gov is the U.S. government's official web portal to all federal, state and local government web resources and services.